Time;durP1;ratioP1;P1;durP2;ratioP2;P2;SDS_P1;SDS_P2;PMS_P1;PMS_P2;Temp;Humidity;BMP_temperature;BMP_pressure;BME280_temperature;BME280_humidity;BME280_pressure;Samples;Min_cycle;Max_cycle;Signal;HPM_P1;HPM_P2
2022/08/25 00:02:31;;;;;;;2.63;2.42;;;25.20;61.40;;;;;;10474655;28;20028;-52
2022/08/25 00:07:31;;;;;;;2.42;2.05;;;25.30;61.50;;;;;;10492364;28;20035;-52
2022/08/25 00:12:32;;;;;;;3.08;2.00;;;25.20;61.40;;;;;;10491076;28;20032;-53
2022/08/25 00:17:33;;;;;;;2.63;2.42;;;25.20;61.40;;;;;;10492620;28;20039;-51
2022/08/25 00:22:34;;;;;;;2.55;2.28;;;25.30;61.40;;;;;;10492284;28;20108;-50
2022/08/25 00:27:35;;;;;;;3.45;2.10;;;25.30;61.40;;;;;;10500190;28;20081;-52
2022/08/25 00:32:36;;;;;;;2.50;2.30;;;25.30;61.40;;;;;;10529899;28;20089;-50
2022/08/25 00:37:37;;;;;;;2.55;2.22;;;25.30;61.40;;;;;;10491850;28;20047;-52
2022/08/25 00:42:40;;;;;;;3.22;2.40;;;25.30;61.40;;;;;;10473444;28;20132;-51
2022/08/25 00:47:40;;;;;;;2.38;2.17;;;25.20;61.30;;;;;;10491025;28;20025;-52
2022/08/25 00:52:46;;;;;;;2.72;2.50;;;25.20;61.30;;;;;;10491576;28;20107;-52
2022/08/25 00:57:58;;;;;;;2.85;2.38;;;25.30;61.40;;;;;;10490034;28;20047;-52
2022/08/25 01:02:59;;;;;;;2.30;2.10;;;25.20;61.30;;;;;;10489884;28;20032;-49
2022/08/25 01:08:05;;;;;;;2.38;2.17;;;25.20;61.30;;;;;;10490282;28;20016;-49
2022/08/25 01:13:30;;;;;;;2.63;2.20;;;25.20;61.30;;;;;;10490123;28;20074;-51
2022/08/25 01:18:46;;;;;;;3.00;2.65;;;25.20;61.30;;;;;;10490714;28;20020;-51
2022/08/25 01:23:48;;;;;;;2.80;2.60;;;25.20;61.30;;;;;;10489471;28;20365;-52
2022/08/25 01:34:11;;;;;;;3.35;2.70;;;25.20;61.30;;;;;;10512301;28;20495;-52
2022/08/25 01:39:14;;;;;;;3.35;2.42;;;25.20;61.30;;;;;;10488969;28;20053;-52
2022/08/25 01:44:16;;;;;;;2.63;2.42;;;25.20;61.30;;;;;;10489430;28;20814;-51
2022/08/25 01:49:17;;;;;;;3.00;2.70;;;25.20;61.40;;;;;;10487190;28;20058;-52
2022/08/25 01:54:19;;;;;;;3.22;2.85;;;25.20;61.40;;;;;;10488549;28;20467;-51
2022/08/25 01:59:21;;;;;;;2.80;2.53;;;25.20;61.40;;;;;;10488106;28;20336;-51
2022/08/25 02:04:22;;;;;;;2.38;2.17;;;25.20;61.40;;;;;;10486748;28;20076;-51
2022/08/25 02:09:23;;;;;;;2.47;2.28;;;25.20;61.40;;;;;;10488148;28;20108;-52
2022/08/25 02:14:25;;;;;;;2.60;2.40;;;25.20;61.30;;;;;;10487971;28;20502;-52
2022/08/25 02:19:26;;;;;;;2.97;2.58;;;25.20;61.40;;;;;;10487803;28;20325;-51
2022/08/25 02:24:27;;;;;;;3.25;2.67;;;25.20;61.30;;;;;;10487773;28;20035;-52
2022/08/25 02:29:28;;;;;;;2.67;2.47;;;25.20;61.10;;;;;;10511635;28;20336;-51
2022/08/25 02:34:29;;;;;;;2.75;2.30;;;25.20;61.00;;;;;;10509358;28;20146;-51
2022/08/25 02:39:29;;;;;;;2.90;2.60;;;25.20;61.00;;;;;;10487413;28;20056;-52
2022/08/25 02:44:30;;;;;;;3.22;2.92;;;25.20;61.00;;;;;;10469968;28;20383;-52
2022/08/25 02:49:31;;;;;;;2.95;2.70;;;25.20;60.90;;;;;;10486274;28;20020;-52
2022/08/25 02:54:32;;;;;;;3.22;2.45;;;25.20;60.80;;;;;;10487000;28;20032;-51
2022/08/25 02:59:34;;;;;;;2.60;2.40;;;25.20;60.70;;;;;;10487014;28;20033;-51
2022/08/25 03:04:35;;;;;;;3.15;2.58;;;25.20;60.70;;;;;;10486792;28;20028;-52
2022/08/25 03:09:36;;;;;;;3.38;3.08;;;25.20;60.60;;;;;;10491908;28;20035;-51
2022/08/25 03:14:38;;;;;;;3.08;2.38;;;25.20;60.50;;;;;;10494710;28;20035;-51
2022/08/25 03:19:39;;;;;;;3.13;2.83;;;25.20;60.50;;;;;;10476152;28;20028;-52
2022/08/25 03:24:40;;;;;;;2.78;2.50;;;25.20;60.40;;;;;;10476022;28;20024;-51
2022/08/25 03:29:42;;;;;;;2.97;2.70;;;25.20;60.40;;;;;;10501591;28;20081;-49
2022/08/25 03:34:42;;;;;;;3.42;2.67;;;25.20;60.30;;;;;;10512127;28;20032;-51
2022/08/25 03:39:43;;;;;;;3.80;2.65;;;25.10;60.20;;;;;;10493291;28;20120;-52
2022/08/25 03:44:44;;;;;;;2.83;2.60;;;25.10;60.10;;;;;;10475406;28;20097;-51
2022/08/25 03:49:45;;;;;;;3.10;2.80;;;25.20;60.20;;;;;;10493576;28;20031;-51
2022/08/25 03:54:45;;;;;;;3.20;2.83;;;25.10;60.10;;;;;;10493291;28;20412;-52
2022/08/25 03:59:46;;;;;;;3.00;2.70;;;25.10;59.90;;;;;;10491679;28;20310;-52
2022/08/25 04:04:47;;;;;;;2.88;2.63;;;25.10;59.90;;;;;;10492955;28;20541;-51
2022/08/25 04:09:48;;;;;;;2.78;2.42;;;25.10;59.90;;;;;;10492571;28;20036;-52
2022/08/25 04:14:49;;;;;;;3.47;2.78;;;25.10;59.90;;;;;;10474116;28;20100;-52
2022/08/25 04:19:50;;;;;;;3.63;2.60;;;25.10;59.90;;;;;;10491236;28;20123;-51
2022/08/25 04:24:51;;;;;;;3.35;3.00;;;25.10;59.90;;;;;;10491451;28;20040;-51
2022/08/25 04:29:51;;;;;;;4.10;2.80;;;25.10;59.90;;;;;;10518685;28;20082;-52
2022/08/25 04:34:52;;;;;;;2.83;2.53;;;25.10;59.90;;;;;;10505163;28;20036;-52
2022/08/25 04:39:53;;;;;;;2.92;2.63;;;25.10;59.90;;;;;;10492496;28;20513;-51
2022/08/25 04:44:53;;;;;;;2.60;2.40;;;25.10;59.90;;;;;;10492894;28;20571;-50
2022/08/25 04:49:54;;;;;;;3.45;3.15;;;25.10;59.80;;;;;;10491982;28;20029;-52
2022/08/25 04:54:55;;;;;;;3.00;2.63;;;25.10;59.80;;;;;;10492770;28;20077;-51
2022/08/25 04:59:56;;;;;;;3.70;2.97;;;25.10;59.80;;;;;;10492868;28;20039;-52
2022/08/25 05:04:56;;;;;;;2.63;2.30;;;25.10;59.70;;;;;;10490704;28;20024;-51
2022/08/25 05:09:57;;;;;;;2.83;2.40;;;25.10;59.70;;;;;;10492108;28;20111;-51
2022/08/25 05:15:48;;;;;;;3.33;2.90;;;25.10;59.60;;;;;;10491795;28;20036;-52
2022/08/25 05:20:19;;;;;;;3.40;2.97;;;25.00;59.60;;;;;;10490283;28;20488;-52
2022/08/25 05:25:20;;;;;;;2.75;2.47;;;25.10;59.60;;;;;;10491427;28;20033;-52
2022/08/25 05:30:20;;;;;;;3.25;2.72;;;25.10;59.50;;;;;;10522838;28;20384;-52
2022/08/25 05:35:21;;;;;;;3.88;2.90;;;25.10;59.50;;;;;;10504224;28;20036;-51
2022/08/25 05:40:23;;;;;;;3.33;3.03;;;25.10;59.50;;;;;;10490635;28;20055;-52
2022/08/25 05:45:24;;;;;;;2.97;2.60;;;25.10;59.50;;;;;;10490791;28;20120;-52
2022/08/25 05:50:26;;;;;;;3.58;2.90;;;25.00;59.30;;;;;;10490652;28;20081;-52
2022/08/25 05:55:27;;;;;;;4.45;3.15;;;25.00;59.30;;;;;;10488854;28;20085;-51
2022/08/25 06:00:27;;;;;;;3.40;2.75;;;25.00;59.30;;;;;;10490220;28;20028;-53
2022/08/25 06:05:28;;;;;;;3.00;2.45;;;25.10;59.40;;;;;;10489950;28;20097;-51
2022/08/25 06:10:29;;;;;;;3.08;2.78;;;25.10;59.30;;;;;;10490813;28;20035;-53
2022/08/25 06:15:30;;;;;;;3.28;2.97;;;25.10;59.30;;;;;;10490172;28;20029;-53
2022/08/25 06:20:32;;;;;;;3.20;2.65;;;25.10;59.20;;;;;;10489914;28;20102;-53
2022/08/25 06:25:32;;;;;;;3.45;3.15;;;25.10;59.20;;;;;;10471717;28;20064;-53
2022/08/25 06:30:33;;;;;;;3.72;2.45;;;25.00;59.10;;;;;;10522294;28;20368;-50
2022/08/25 06:35:34;;;;;;;4.43;2.90;;;25.10;59.10;;;;;;10502264;28;20368;-52
2022/08/25 06:40:35;;;;;;;3.28;2.97;;;25.10;59.10;;;;;;10489126;28;20392;-52
2022/08/25 06:45:36;;;;;;;3.40;3.00;;;25.00;59.00;;;;;;10496299;28;20029;-52
2022/08/25 06:50:38;;;;;;;3.40;3.10;;;25.10;58.90;;;;;;10497567;28;20028;-52
2022/08/25 06:55:39;;;;;;;3.65;3.22;;;25.10;58.90;;;;;;10479464;28;20032;-52
2022/08/25 07:00:40;;;;;;;4.00;3.20;;;25.10;59.00;;;;;;10478828;28;20447;-51
2022/08/25 07:05:41;;;;;;;3.25;2.88;;;25.10;59.10;;;;;;10497785;28;20383;-52
2022/08/25 07:10:41;;;;;;;3.20;2.90;;;25.10;59.00;;;;;;10496480;28;20108;-53
2022/08/25 07:15:42;;;;;;;3.50;3.20;;;25.10;58.90;;;;;;10495540;28;20108;-52
2022/08/25 07:20:43;;;;;;;3.95;3.40;;;25.10;58.80;;;;;;10496720;28;20111;-53
2022/08/25 07:25:44;;;;;;;6.25;3.30;;;25.10;58.80;;;;;;10495830;28;20124;-52
2022/08/25 07:30:45;;;;;;;4.78;3.65;;;25.10;58.80;;;;;;10531307;28;20098;-53
2022/08/25 07:35:46;;;;;;;4.25;3.15;;;25.10;58.70;;;;;;10506693;28;20040;-52
2022/08/25 07:40:53;;;;;;;3.45;3.13;;;25.10;58.60;;;;;;10493942;28;20051;-52
2022/08/25 07:45:54;;;;;;;3.78;3.38;;;25.10;58.70;;;;;;10477473;28;20044;-52
2022/08/25 07:50:55;;;;;;;3.45;3.00;;;25.10;58.50;;;;;;10495145;28;20447;-52
2022/08/25 07:55:56;;;;;;;3.38;3.08;;;25.10;58.90;;;;;;10476973;28;20115;-54
2022/08/25 08:00:56;;;;;;;4.55;2.83;;;25.10;59.00;;;;;;10494715;28;20046;-53
2022/08/25 08:05:58;;;;;;;3.15;2.80;;;25.20;59.20;;;;;;10494894;28;20383;-51
2022/08/25 08:10:59;;;;;;;4.00;2.92;;;25.20;59.20;;;;;;10493125;28;20039;-53
2022/08/25 08:16:00;;;;;;;4.45;2.90;;;25.20;59.20;;;;;;10494153;28;20423;-54
2022/08/25 08:21:01;;;;;;;3.92;3.35;;;25.20;59.10;;;;;;10494149;28;20030;-53
2022/08/25 08:26:02;;;;;;;3.13;2.83;;;25.20;59.10;;;;;;10492654;28;20024;-53
2022/08/25 08:31:03;;;;;;;3.72;3.20;;;25.20;59.00;;;;;;10530607;28;20383;-52
2022/08/25 08:36:11;;;;;;;3.30;2.95;;;25.20;59.00;;;;;;10500736;28;20044;-53
2022/08/25 08:47:04;;;;;;;4.22;3.28;;;25.30;59.00;;;;;;10493269;28;20049;-53
2022/08/25 08:52:06;;;;;;;3.70;3.40;;;25.30;59.10;;;;;;10491747;28;20440;-53
2022/08/25 08:57:18;;;;;;;3.22;2.85;;;25.30;59.10;;;;;;10491381;28;20067;-54
2022/08/25 09:02:34;;;;;;;4.63;3.47;;;25.30;59.00;;;;;;10474327;28;20056;-54
2022/08/25 09:08:08;;;;;;;3.70;2.92;;;25.30;59.00;;;;;;10474219;28;20028;-53
2022/08/25 09:13:20;;;;;;;3.22;2.58;;;25.40;59.20;;;;;;10474404;28;20028;-50
2022/08/25 09:18:34;;;;;;;4.15;3.75;;;25.40;59.20;;;;;;10491529;28;20029;-52
2022/08/25 09:24:23;;;;;;;4.15;2.90;;;25.40;59.10;;;;;;10491676;28;20041;-53
2022/08/25 09:29:50;;;;;;;4.22;2.67;;;25.40;59.10;;;;;;10514658;28;20035;-54
2022/08/25 09:34:53;;;;;;;3.13;2.70;;;25.40;59.10;;;;;;10491717;28;20452;-52
2022/08/25 09:39:54;;;;;;;3.38;3.08;;;25.40;59.00;;;;;;10489658;28;20049;-54
2022/08/25 09:44:54;;;;;;;3.22;2.70;;;25.40;59.10;;;;;;10490663;28;20101;-53
2022/08/25 09:50:03;;;;;;;6.63;3.03;;;25.50;59.20;;;;;;10490868;28;20028;-53
2022/08/25 09:55:07;;;;;;;3.55;2.65;;;25.50;59.20;;;;;;10489467;28;20043;-53
2022/08/25 10:00:09;;;;;;;3.80;3.25;;;25.50;59.10;;;;;;10490813;28;20476;-54
2022/08/25 10:06:06;;;;;;;3.13;2.53;;;25.50;59.00;;;;;;10490378;28;20028;-53
2022/08/25 10:11:13;;;;;;;3.60;3.00;;;25.60;59.10;;;;;;10489998;28;20040;-54
2022/08/25 10:16:30;;;;;;;4.05;2.80;;;25.60;59.40;;;;;;10490188;28;20040;-54
2022/08/25 10:21:31;;;;;;;3.22;2.85;;;25.60;59.00;;;;;;10471820;28;20020;-54
2022/08/25 10:26:53;;;;;;;3.85;3.03;;;25.60;59.00;;;;;;10489378;28;20028;-53
2022/08/25 10:32:23;;;;;;;3.90;2.75;;;25.70;59.00;;;;;;10490319;28;20033;-53
2022/08/25 10:37:31;;;;;;;;;;;25.70;59.00;;;;;;10504051;28;20032;-53
2022/08/25 10:42:55;;;;;;;3.55;3.25;;;25.70;58.80;;;;;;10489644;28;19951;-54
2022/08/25 10:48:35;;;;;;;3.63;3.15;;;25.70;58.50;;;;;;10488505;28;20090;-53
2022/08/25 10:53:56;;;;;;;;;;;25.80;58.70;;;;;;10453327;28;20110;-54
2022/08/25 10:59:19;;;;;;;2.60;2.40;;;25.80;58.90;;;;;;10489402;28;19915;-53
2022/08/25 11:04:31;;;;;;;4.63;2.80;;;25.80;58.80;;;;;;10488678;28;20033;-51
2022/08/25 11:09:40;;;;;;;2.70;2.28;;;25.80;58.70;;;;;;10489158;28;20056;-52
2022/08/25 11:14:49;;;;;;;3.10;2.80;;;25.90;58.90;;;;;;10487811;28;20025;-53
2022/08/25 11:20:07;;;;;;;2.60;2.40;;;25.90;58.60;;;;;;10487841;28;20028;-52
2022/08/25 11:25:28;;;;;;;2.63;2.42;;;25.90;58.60;;;;;;10488589;28;20016;-52
2022/08/25 11:30:29;;;;;;;3.08;2.63;;;25.90;58.60;;;;;;10524286;28;20064;-53
2022/08/25 11:36:03;;;;;;;4.22;2.88;;;25.90;58.60;;;;;;10508894;28;20059;-53
2022/08/25 11:41:38;;;;;;;4.32;2.90;;;26.00;58.40;;;;;;10494664;28;20511;-53
2022/08/25 11:47:02;;;;;;;3.50;2.70;;;26.00;58.70;;;;;;10494476;28;20029;-54
2022/08/25 11:52:31;;;;;;;3.00;2.70;;;26.00;58.80;;;;;;10495126;28;20498;-53
2022/08/25 11:57:32;;;;;;;2.87;2.40;;;26.00;58.80;;;;;;10495029;28;20434;-53
2022/08/25 12:02:38;;;;;;;3.35;2.90;;;26.00;58.70;;;;;;10493708;28;20275;-54
2022/08/25 12:13:46;;;;;;;3.33;2.80;;;26.00;58.60;;;;;;10494286;28;20086;-54
2022/08/25 12:18:47;;;;;;;2.75;2.47;;;26.10;58.70;;;;;;10494886;28;20063;-53
2022/08/25 12:24:09;;;;;;;3.88;2.78;;;26.10;58.60;;;;;;10494739;28;20042;-54
2022/08/25 12:29:45;;;;;;;3.00;2.67;;;26.10;58.60;;;;;;10515171;28;20129;-53
2022/08/25 12:35:35;;;;;;;3.05;2.75;;;26.10;58.70;;;;;;10511811;28;20047;-53
2022/08/25 12:40:42;;;;;;;3.15;2.85;;;26.00;58.50;;;;;;10492400;28;20393;-55
2022/08/25 12:45:47;;;;;;;3.47;2.72;;;26.10;58.60;;;;;;10493034;28;20116;-52
2022/08/25 12:51:19;;;;;;;3.75;2.70;;;26.10;58.70;;;;;;10475034;28;20028;-52
2022/08/25 12:56:39;;;;;;;4.00;2.47;;;26.10;58.60;;;;;;10491445;28;20024;-52
2022/08/25 13:02:10;;;;;;;4.13;2.67;;;26.10;58.70;;;;;;10491217;28;20214;-53
2022/08/25 13:08:08;;;;;;;3.78;2.90;;;26.10;58.60;;;;;;10492336;28;20107;-51
2022/08/25 13:13:42;;;;;;;2.75;2.15;;;26.10;58.50;;;;;;10436782;28;20040;-53
2022/08/25 13:18:43;;;;;;;3.63;2.70;;;26.20;58.50;;;;;;10491708;28;20361;-53
2022/08/25 13:23:53;;;;;;;2.70;2.50;;;26.20;58.50;;;;;;10473512;28;20028;-54
2022/08/25 13:29:01;;;;;;;3.25;2.60;;;26.20;58.00;;;;;;10509879;28;20024;-54
2022/08/25 13:34:06;;;;;;;3.15;2.70;;;26.20;58.30;;;;;;10516479;28;20111;-52
2022/08/25 13:39:27;;;;;;;3.80;2.83;;;26.20;58.20;;;;;;10490728;28;20048;-53
2022/08/25 13:44:33;;;;;;;2.58;2.35;;;26.20;58.10;;;;;;10473256;28;20075;-54
2022/08/25 13:49:35;;;;;;;4.07;2.80;;;26.20;58.40;;;;;;10456030;28;20024;-52
2022/08/25 13:54:40;;;;;;;3.08;2.70;;;26.20;58.40;;;;;;10472039;28;20055;-53
2022/08/25 13:59:44;;;;;;;2.72;2.22;;;26.20;58.20;;;;;;10490579;28;20349;-54
2022/08/25 14:04:48;;;;;;;3.08;2.78;;;26.10;57.90;;;;;;10471965;28;20044;-53
2022/08/25 14:09:50;;;;;;;3.00;2.30;;;26.10;58.10;;;;;;10489769;28;20530;-53
2022/08/25 14:15:18;;;;;;;3.20;2.60;;;26.10;58.20;;;;;;10489903;28;20036;-53
2022/08/25 14:20:28;;;;;;;3.53;2.55;;;26.10;58.10;;;;;;10466668;28;20462;-53
2022/08/25 14:25:30;;;;;;;3.47;2.92;;;26.10;58.00;;;;;;10471230;28;20044;-52
2022/08/25 14:30:34;;;;;;;3.33;2.35;;;26.10;58.00;;;;;;10521043;28;20047;-53
2022/08/25 14:35:36;;;;;;;2.88;2.58;;;26.10;58.10;;;;;;10501848;28;20089;-53
2022/08/25 14:40:38;;;;;;;2.17;1.98;;;26.10;57.70;;;;;;10489963;28;20052;-54
2022/08/25 14:45:42;;;;;;;3.80;2.22;;;26.10;57.70;;;;;;10471829;28;20770;-54
2022/08/25 14:50:44;;;;;;;3.40;2.75;;;26.10;56.90;;;;;;10487912;28;20090;-53
2022/08/25 14:55:45;;;;;;;2.97;2.50;;;26.10;57.80;;;;;;10471104;28;20035;-52
2022/08/25 15:00:47;;;;;;;2.80;2.42;;;26.10;57.60;;;;;;10488029;28;20039;-54
2022/08/25 15:05:47;;;;;;;2.88;2.58;;;26.10;57.30;;;;;;10493030;28;20040;-54
2022/08/25 15:10:48;;;;;;;2.70;2.40;;;26.10;57.40;;;;;;10495449;28;20025;-52
2022/08/25 15:15:49;;;;;;;2.78;2.50;;;26.10;57.50;;;;;;10496826;28;20103;-55
2022/08/25 15:20:50;;;;;;;3.45;2.90;;;26.10;57.70;;;;;;10495117;28;20029;-55
2022/08/25 15:25:54;;;;;;;2.50;2.30;;;26.10;57.10;;;;;;10496596;28;20107;-55
2022/08/25 15:30:54;;;;;;;4.07;2.88;;;26.10;57.30;;;;;;10530915;28;20028;-53
2022/08/25 15:35:55;;;;;;;2.75;2.10;;;26.10;57.20;;;;;;10504034;28;20510;-54
2022/08/25 15:40:56;;;;;;;2.47;2.28;;;26.10;56.90;;;;;;10496015;28;20406;-53
2022/08/25 15:45:57;;;;;;;2.55;2.30;;;26.10;57.50;;;;;;10495634;28;20024;-54
2022/08/25 15:50:59;;;;;;;2.60;2.25;;;26.10;57.10;;;;;;10495486;28;20077;-54
2022/08/25 15:56:00;;;;;;;2.42;2.20;;;26.10;57.10;;;;;;10494122;28;20098;-53
2022/08/25 16:01:01;;;;;;;2.83;2.45;;;26.10;57.70;;;;;;10495189;28;20110;-54
2022/08/25 16:06:03;;;;;;;4.47;3.15;;;26.10;57.60;;;;;;10476494;28;20127;-54
2022/08/25 16:11:14;;;;;;;3.47;2.70;;;26.10;56.80;;;;;;10476644;28;20034;-55
2022/08/25 16:16:15;;;;;;;3.65;2.22;;;26.10;56.40;;;;;;10493267;28;20036;-54
2022/08/25 16:21:24;;;;;;;7.75;2.72;;;26.10;56.70;;;;;;10494223;28;20047;-54
2022/08/25 16:26:25;;;;;;;3.30;2.50;;;26.20;56.80;;;;;;10493069;28;20107;-53
2022/08/25 16:31:27;;;;;;;3.20;2.63;;;26.10;57.40;;;;;;10533986;28;20052;-55
2022/08/25 16:36:28;;;;;;;2.38;2.15;;;26.20;57.10;;;;;;10480306;28;20033;-54
2022/08/25 16:41:33;;;;;;;2.75;2.55;;;26.20;57.30;;;;;;10493063;28;20052;-54
2022/08/25 16:46:35;;;;;;;2.80;2.17;;;26.20;57.60;;;;;;10492135;28;20032;-53
2022/08/25 16:51:38;;;;;;;2.45;2.25;;;26.20;57.70;;;;;;10492199;28;20373;-54
2022/08/25 16:56:41;;;;;;;2.97;2.63;;;26.20;57.80;;;;;;10492676;28;20032;-54
2022/08/25 17:01:42;;;;;;;2.53;2.25;;;26.20;57.70;;;;;;10492644;28;20024;-54
2022/08/25 17:06:43;;;;;;;2.90;2.60;;;26.20;57.80;;;;;;10492753;28;20024;-54
2022/08/25 17:11:46;;;;;;;2.60;2.40;;;26.20;57.90;;;;;;10492101;28;20509;-54
2022/08/25 17:16:47;;;;;;;3.50;3.20;;;26.10;57.90;;;;;;10491233;28;20474;-53
2022/08/25 17:21:48;;;;;;;2.88;2.20;;;26.20;57.90;;;;;;10473609;28;20052;-53
2022/08/25 17:26:49;;;;;;;2.20;1.95;;;26.20;57.90;;;;;;10492652;28;20024;-52
2022/08/25 17:31:50;;;;;;;2.85;2.38;;;26.20;57.90;;;;;;10515418;28;20028;-53
2022/08/25 17:36:53;;;;;;;2.60;2.40;;;26.20;57.90;;;;;;10493013;28;20042;-54
2022/08/25 17:41:53;;;;;;;2.83;2.17;;;26.20;57.90;;;;;;10491071;28;20617;-55
2022/08/25 17:46:54;;;;;;;2.78;2.40;;;26.20;57.80;;;;;;10489473;28;20089;-53
2022/08/25 17:51:55;;;;;;;3.53;2.03;;;26.20;57.90;;;;;;10490651;28;20021;-54
2022/08/25 17:56:56;;;;;;;3.00;2.30;;;26.20;57.90;;;;;;10491192;28;20046;-55
2022/08/25 18:01:57;;;;;;;3.60;2.40;;;26.20;57.90;;;;;;10490357;28;20036;-53
2022/08/25 18:06:58;;;;;;;2.67;2.38;;;26.20;57.90;;;;;;10490200;28;20029;-55
2022/08/25 18:11:58;;;;;;;2.58;2.30;;;26.20;57.70;;;;;;10490104;28;20027;-54
2022/08/25 18:17:02;;;;;;;3.10;2.53;;;26.20;57.70;;;;;;10490175;28;20510;-54
2022/08/25 18:22:04;;;;;;;3.63;2.33;;;26.20;57.70;;;;;;10472205;28;20028;-52
2022/08/25 18:27:05;;;;;;;2.90;2.35;;;26.20;57.70;;;;;;10493500;28;20039;-53
2022/08/25 18:32:06;;;;;;;2.75;2.50;;;26.20;57.70;;;;;;10531359;28;20030;-54
2022/08/25 18:42:27;;;;;;;3.80;2.83;;;26.20;57.80;;;;;;10497446;28;20052;-53
2022/08/25 18:47:28;;;;;;;3.08;2.58;;;26.20;57.80;;;;;;10497918;28;20039;-52
2022/08/25 18:52:29;;;;;;;2.60;2.40;;;26.20;57.60;;;;;;10497955;28;20387;-55
2022/08/25 18:57:29;;;;;;;2.80;2.50;;;26.30;57.50;;;;;;10498066;28;20574;-54
2022/08/25 19:02:30;;;;;;;2.97;2.55;;;26.30;57.60;;;;;;10497941;28;20029;-54
2022/08/25 19:07:31;;;;;;;3.95;2.53;;;26.30;57.60;;;;;;10496921;28;20029;-53
2022/08/25 19:12:32;;;;;;;2.40;2.20;;;26.30;57.60;;;;;;10496959;28;20032;-52
2022/08/25 19:17:33;;;;;;;3.05;2.40;;;26.20;57.60;;;;;;10493890;28;20029;-53
2022/08/25 19:22:34;;;;;;;3.30;3.00;;;26.20;57.70;;;;;;10493259;28;20055;-54
2022/08/25 19:27:35;;;;;;;2.90;2.53;;;26.30;57.80;;;;;;10501114;28;20039;-54
2022/08/25 19:32:39;;;;;;;3.33;2.67;;;26.30;57.90;;;;;;10531530;28;20025;-53
2022/08/25 19:37:39;;;;;;;3.22;2.70;;;26.30;57.90;;;;;;10476542;28;20032;-54
2022/08/25 19:42:41;;;;;;;3.38;2.97;;;26.20;57.90;;;;;;10494004;28;20044;-53
2022/08/25 19:47:41;;;;;;;3.75;2.85;;;26.30;58.00;;;;;;10492298;28;20016;-53
2022/08/25 19:52:43;;;;;;;3.25;2.92;;;26.30;58.10;;;;;;10491716;28;20028;-53
2022/08/25 19:57:44;;;;;;;2.80;2.50;;;26.30;58.10;;;;;;10492206;28;20517;-52
2022/08/25 20:02:46;;;;;;;2.60;2.40;;;26.30;58.00;;;;;;10493295;28;20028;-52
2022/08/25 20:07:48;;;;;;;3.80;3.15;;;26.30;58.00;;;;;;10491525;28;20024;-52
2022/08/25 20:12:50;;;;;;;3.25;2.88;;;26.30;58.10;;;;;;10492741;28;20464;-53
2022/08/25 20:17:51;;;;;;;3.40;2.50;;;26.30;58.20;;;;;;10474595;28;20391;-52
2022/08/25 20:22:52;;;;;;;4.40;3.75;;;26.30;58.30;;;;;;10491420;28;20041;-54
2022/08/25 20:27:55;;;;;;;3.90;3.47;;;26.20;58.30;;;;;;10502375;28;20035;-53
2022/08/25 20:32:56;;;;;;;3.60;3.30;;;26.20;58.50;;;;;;10508646;28;20341;-52
2022/08/25 20:37:58;;;;;;;4.05;3.63;;;26.20;58.50;;;;;;10490806;28;20078;-52
2022/08/25 20:43:03;;;;;;;4.25;3.78;;;26.20;58.50;;;;;;10490262;28;20044;-53
2022/08/25 20:48:04;;;;;;;3.88;3.50;;;26.20;58.60;;;;;;10490320;28;20029;-53
2022/08/25 20:53:05;;;;;;;4.10;3.78;;;26.20;58.60;;;;;;10492114;28;20550;-52
2022/08/25 20:58:07;;;;;;;5.35;4.07;;;26.20;58.70;;;;;;10473499;28;20077;-53
2022/08/25 21:03:07;;;;;;;6.07;4.90;;;26.20;58.80;;;;;;10490011;28;20033;-53
2022/08/25 21:08:09;;;;;;;5.18;4.78;;;26.20;58.80;;;;;;10490554;28;20228;-53
2022/08/25 21:13:10;;;;;;;5.78;5.18;;;26.20;58.90;;;;;;10489926;28;20096;-53
2022/08/25 21:18:10;;;;;;;5.28;4.72;;;26.20;58.90;;;;;;10489949;28;20024;-54
2022/08/25 21:23:12;;;;;;;5.97;4.93;;;26.20;59.00;;;;;;10489595;28;20043;-53
2022/08/25 21:28:13;;;;;;;5.68;5.18;;;26.20;59.10;;;;;;10501825;28;20043;-53
2022/08/25 21:33:14;;;;;;;5.53;5.03;;;26.20;59.20;;;;;;10520820;28;20099;-51
2022/08/25 21:38:15;;;;;;;5.70;5.18;;;26.20;59.20;;;;;;10487653;28;20159;-54
2022/08/25 21:43:16;;;;;;;6.30;5.70;;;26.20;59.40;;;;;;10489470;28;20036;-53
2022/08/25 21:48:16;;;;;;;5.47;4.97;;;26.20;59.40;;;;;;10487947;28;20548;-53
2022/08/25 21:53:17;;;;;;;5.97;5.47;;;26.20;59.40;;;;;;10454376;28;20527;-52
2022/08/25 21:58:18;;;;;;;4.95;4.50;;;26.20;59.50;;;;;;10487336;28;20033;-53
2022/08/25 22:03:19;;;;;;;6.15;5.35;;;26.20;59.50;;;;;;10470488;28;20012;-54
2022/08/25 22:08:20;;;;;;;7.60;6.10;;;26.20;59.60;;;;;;10488202;28;20025;-54
2022/08/25 22:13:21;;;;;;;6.47;5.25;;;26.20;59.60;;;;;;10486643;28;20463;-53
2022/08/25 22:18:22;;;;;;;6.03;5.30;;;26.20;59.60;;;;;;10488188;28;20021;-53
2022/08/25 22:23:24;;;;;;;5.85;5.25;;;26.20;59.70;;;;;;10487982;28;20025;-53
2022/08/25 22:28:26;;;;;;;6.32;5.72;;;26.20;59.80;;;;;;10501329;28;20028;-53
2022/08/25 22:33:27;;;;;;;6.07;5.57;;;26.20;59.80;;;;;;10518131;28;20032;-53
2022/08/25 22:38:27;;;;;;;5.95;5.38;;;26.10;59.80;;;;;;10487535;28;20373;-53
2022/08/25 22:43:28;;;;;;;6.13;5.63;;;26.20;59.90;;;;;;10487660;28;20036;-51
2022/08/25 22:48:29;;;;;;;5.55;5.00;;;26.10;59.80;;;;;;10487919;28;20090;-53
2022/08/25 22:53:29;;;;;;;6.00;5.40;;;26.20;60.00;;;;;;10487792;28;20029;-52
2022/08/25 22:58:30;;;;;;;7.00;5.35;;;26.20;60.00;;;;;;10487236;28;20454;-52
2022/08/25 23:03:31;;;;;;;5.43;4.93;;;26.20;60.00;;;;;;10488147;28;20408;-49
2022/08/25 23:08:32;;;;;;;5.65;4.63;;;26.10;60.00;;;;;;10487089;28;20019;-51
2022/08/25 23:13:32;;;;;;;6.38;5.75;;;26.10;60.00;;;;;;10486902;28;20563;-51
2022/08/25 23:18:34;;;;;;;6.60;5.10;;;26.10;60.10;;;;;;10486922;28;20494;-51
2022/08/25 23:23:35;;;;;;;5.80;5.15;;;26.10;60.10;;;;;;10485903;28;20028;-50
2022/08/25 23:28:37;;;;;;;6.68;6.07;;;26.10;60.20;;;;;;10510866;28;20031;-51
2022/08/25 23:33:38;;;;;;;6.38;5.78;;;26.10;60.20;;;;;;10523597;28;20036;-52
2022/08/25 23:38:43;;;;;;;10.95;6.10;;;26.10;60.20;;;;;;10493271;28;20048;-51
2022/08/25 23:43:46;;;;;;;7.43;5.25;;;26.10;60.30;;;;;;10494131;28;20037;-49
2022/08/25 23:48:48;;;;;;;5.70;5.18;;;26.10;60.30;;;;;;10493552;28;20020;-48
2022/08/25 23:53:50;;;;;;;5.70;5.20;;;26.10;60.30;;;;;;10493784;28;20028;-51
2022/08/25 23:58:51;;;;;;;5.85;5.30;;;26.10;60.40;;;;;;10493189;28;20106;-51
